createdAt,value
2023-05-12T00:01:24.082Z,99886.75
2023-05-12T00:03:53.655Z,99884.38
2023-05-12T00:06:21.005Z,99888.31
2023-05-12T00:08:47.465Z,99877.81
2023-05-12T00:11:14.045Z,99877.66
2023-05-12T00:13:40.699Z,99866.63
2023-05-12T00:16:07.469Z,99875.84
2023-05-12T00:18:34.488Z,99883.63
2023-05-12T00:21:01.251Z,99882.03
2023-05-12T00:23:27.747Z,99879.00
2023-05-12T00:25:55.222Z,99881.38
2023-05-12T00:28:21.704Z,99876.94
2023-05-12T00:30:48.112Z,99881.72
2023-05-12T00:33:14.702Z,99878.91
2023-05-12T00:35:41.344Z,99874.25
2023-05-12T00:38:07.794Z,99876.69
2023-05-12T00:40:34.311Z,99888.69
2023-05-12T00:43:00.729Z,99880.03
2023-05-12T00:45:29.403Z,99869.50
2023-05-12T00:47:56.806Z,99871.25
2023-05-12T00:50:23.483Z,99876.88
2023-05-12T00:52:50.191Z,99887.66
2023-05-12T00:55:16.755Z,99880.81
2023-05-12T00:57:43.611Z,99876.72
2023-05-12T01:00:10.711Z,99875.59
2023-05-12T01:02:37.600Z,99881.97
2023-05-12T01:05:04.762Z,99886.00
2023-05-12T01:07:32.800Z,99890.34
2023-05-12T01:09:59.466Z,99882.34
2023-05-12T01:12:26.695Z,99881.19
2023-05-12T01:14:54.672Z,99874.34
2023-05-12T01:17:26.815Z,99878.81
2023-05-12T01:19:54.840Z,99877.97
2023-05-12T01:22:21.373Z,99879.53
2023-05-12T01:24:51.583Z,99882.75
2023-05-12T01:27:19.425Z,99883.63
2023-05-12T01:29:47.306Z,99873.63
2023-05-12T01:32:14.866Z,99876.00
2023-05-12T01:34:43.044Z,99883.22
2023-05-12T01:37:10.491Z,99879.63
2023-05-12T01:39:37.874Z,99889.22
2023-05-12T01:42:07.490Z,99883.56
2023-05-12T01:44:34.398Z,99883.94
2023-05-12T01:47:01.836Z,99879.53
2023-05-12T01:49:28.464Z,99880.72
2023-05-12T01:51:55.716Z,99879.03
2023-05-12T01:54:22.298Z,99878.22
2023-05-12T01:56:48.990Z,99893.16
2023-05-12T01:59:15.868Z,99888.66
2023-05-12T02:01:42.468Z,99895.97
2023-05-12T02:04:09.378Z,99890.25
2023-05-12T02:06:36.087Z,99897.03
2023-05-12T02:09:02.876Z,99889.00
2023-05-12T02:11:29.450Z,99895.00
2023-05-12T02:13:56.356Z,99898.97
2023-05-12T02:16:23.647Z,99899.31
2023-05-12T02:18:50.398Z,99897.69
2023-05-12T02:21:17.116Z,99895.97
2023-05-12T02:23:43.860Z,99899.59
2023-05-12T02:26:10.868Z,99906.84
2023-05-12T02:28:37.726Z,99899.06
2023-05-12T02:31:04.457Z,99902.28
2023-05-12T02:33:31.739Z,99906.16
2023-05-12T02:35:58.549Z,99910.09
2023-05-12T02:38:25.803Z,99909.25
2023-05-12T02:40:52.357Z,99899.53
2023-05-12T02:43:18.890Z,99906.25
2023-05-12T02:45:45.457Z,99908.66
2023-05-12T02:48:12.770Z,99898.50
2023-05-12T02:50:39.413Z,99904.84
2023-05-12T02:53:06.290Z,99901.56
2023-05-12T02:55:34.053Z,99905.91
2023-05-12T02:58:01.349Z,99899.50
2023-05-12T03:00:28.111Z,99901.06
2023-05-12T03:02:55.595Z,99897.41
2023-05-12T03:05:22.135Z,99901.38
2023-05-12T03:07:49.697Z,99900.50
2023-05-12T03:10:17.818Z,99903.69
2023-05-12T03:12:44.676Z,99901.97
2023-05-12T03:15:11.402Z,99904.88
2023-05-12T03:17:38.319Z,99902.06
2023-05-12T03:20:05.578Z,99903.06
2023-05-12T03:22:32.388Z,99911.06
2023-05-12T03:24:58.914Z,99903.88
2023-05-12T03:27:25.423Z,99900.63
2023-05-12T03:29:51.962Z,99906.72
2023-05-12T03:32:18.410Z,99906.28
2023-05-12T03:34:44.823Z,99912.63
2023-05-12T03:37:11.663Z,99912.63
2023-05-12T03:39:38.833Z,99902.69
2023-05-12T03:42:06.226Z,99907.84
2023-05-12T03:44:32.734Z,99907.03
2023-05-12T03:46:59.262Z,99912.25
2023-05-12T03:49:25.857Z,99916.19
2023-05-12T03:51:52.580Z,99911.69
2023-05-12T03:54:19.337Z,99911.75
2023-05-12T03:56:50.468Z,99914.63
2023-05-12T03:59:19.383Z,99915.81
2023-05-12T04:01:46.113Z,99911.50
2023-05-12T04:04:13.012Z,99917.59
2023-05-12T04:06:39.715Z,99924.13
2023-05-12T04:09:06.378Z,99918.56
2023-05-12T04:11:32.939Z,99925.03
2023-05-12T04:13:59.645Z,99922.56
2023-05-12T04:16:26.234Z,99921.38
2023-05-12T04:18:53.046Z,99924.22
2023-05-12T04:21:19.533Z,99923.53
2023-05-12T04:23:45.999Z,99930.03
2023-05-12T04:26:12.489Z,99935.63
2023-05-12T04:28:38.951Z,99934.97
2023-05-12T04:31:05.562Z,99930.63
2023-05-12T04:33:32.898Z,99939.00
2023-05-12T04:35:59.829Z,99928.41
2023-05-12T04:38:26.769Z,99921.81
2023-05-12T04:41:00.047Z,99917.81
2023-05-12T04:45:58.613Z,99927.47
2023-05-12T04:48:26.685Z,99936.38
2023-05-12T04:50:53.106Z,99929.84
2023-05-12T04:53:19.648Z,99921.19
2023-05-12T04:55:46.257Z,99929.25
2023-05-12T04:58:16.144Z,99936.22
2023-05-12T05:00:42.701Z,99931.59
2023-05-12T05:03:09.486Z,99939.22
2023-05-12T05:05:35.980Z,99937.16
2023-05-12T05:08:02.380Z,99940.13
2023-05-12T05:10:28.832Z,99934.72
2023-05-12T05:12:55.339Z,99941.56
2023-05-12T05:15:22.003Z,99943.09
2023-05-12T05:17:49.679Z,99943.69
2023-05-12T05:20:16.696Z,99949.72
2023-05-12T05:22:43.763Z,99947.56
2023-05-12T05:25:10.817Z,99954.84
2023-05-12T05:27:38.645Z,99946.19
2023-05-12T05:30:09.219Z,99953.38
2023-05-12T05:32:36.871Z,99952.16
2023-05-12T05:35:03.515Z,99951.41
2023-05-12T05:37:30.346Z,99947.78
2023-05-12T05:39:56.987Z,99955.19
2023-05-12T05:42:23.398Z,99957.78
2023-05-12T05:44:49.866Z,99957.34
2023-05-12T05:47:16.456Z,99951.44
2023-05-12T05:49:43.038Z,99957.75
2023-05-12T05:52:09.509Z,99953.75
2023-05-12T05:54:36.004Z,99963.03
2023-05-12T05:57:03.084Z,99966.72
2023-05-12T05:59:29.483Z,99966.88
2023-05-12T06:01:55.969Z,99969.94
2023-05-12T06:04:22.501Z,99968.66
2023-05-12T06:06:48.960Z,99959.41
2023-05-12T06:09:15.822Z,99966.69
2023-05-12T06:11:42.537Z,99966.88
2023-05-12T06:14:09.182Z,99961.44
2023-05-12T06:16:35.690Z,99970.44
2023-05-12T06:19:02.436Z,99970.44
2023-05-12T06:21:28.936Z,99978.09
2023-05-12T06:23:56.336Z,99979.59
2023-05-12T06:26:22.737Z,99981.91
2023-05-12T06:28:49.131Z,99983.78
2023-05-12T06:31:15.598Z,99987.94
2023-05-12T06:33:42.722Z,99990.22
2023-05-12T06:36:10.570Z,99987.59
2023-05-12T06:38:37.062Z,99991.34
2023-05-12T06:41:03.574Z,99991.13
2023-05-12T06:43:30.066Z,99991.25
2023-05-12T06:45:56.880Z,99990.19
2023-05-12T06:48:24.167Z,99987.28
2023-05-12T06:50:50.612Z,99984.31
2023-05-12T06:53:16.994Z,99986.06
2023-05-12T06:55:44.150Z,99988.31
2023-05-12T06:58:10.586Z,99985.00
2023-05-12T07:00:37.277Z,99996.25
2023-05-12T07:03:04.319Z,99985.19
2023-05-12T07:05:30.861Z,99990.72
2023-05-12T07:07:57.314Z,99991.72
2023-05-12T07:10:23.702Z,99987.38
2023-05-12T07:12:50.334Z,99981.59
2023-05-12T07:15:16.788Z,99980.28
2023-05-12T07:17:43.226Z,99984.44
2023-05-12T07:20:09.835Z,99974.41
2023-05-12T07:22:38.870Z,99975.38
2023-05-12T07:25:07.598Z,99986.25
2023-05-12T07:27:34.329Z,99990.47
2023-05-12T07:30:01.508Z,99977.94
2023-05-12T07:32:27.976Z,99989.06
2023-05-12T07:34:54.421Z,99982.34
2023-05-12T07:37:20.926Z,99978.53
2023-05-12T07:39:47.429Z,99982.66
2023-05-12T07:42:14.026Z,99980.56
2023-05-12T07:44:41.292Z,99985.13
2023-05-12T07:47:07.698Z,99985.00
2023-05-12T07:49:34.101Z,99989.47
2023-05-12T07:52:00.836Z,99982.16
2023-05-12T07:54:27.265Z,99985.97
2023-05-12T07:56:53.675Z,99983.84
2023-05-12T07:59:20.332Z,99975.66
2023-05-12T08:01:46.859Z,99978.41
2023-05-12T08:04:13.429Z,99978.84
2023-05-12T08:06:39.972Z,99977.63
2023-05-12T08:09:06.556Z,99975.88
2023-05-12T08:11:32.985Z,99982.22
2023-05-12T08:13:59.420Z,99981.81
2023-05-12T08:16:26.226Z,99980.31
2023-05-12T08:18:52.787Z,99978.47
2023-05-12T08:21:19.227Z,99978.69
2023-05-12T08:23:45.885Z,99983.25
2023-05-12T08:26:12.314Z,99974.88
2023-05-12T08:28:38.853Z,99982.81
2023-05-12T08:31:05.347Z,99983.03
2023-05-12T08:33:34.597Z,99974.75
2023-05-12T08:36:01.350Z,99986.19
2023-05-12T08:38:28.399Z,99978.91
2023-05-12T08:41:13.537Z,99979.47
2023-05-12T08:43:50.302Z,99974.16
2023-05-12T08:46:16.955Z,99981.28
2023-05-12T08:48:46.107Z,99981.56
2023-05-12T08:51:13.772Z,99976.69
2023-05-12T08:53:41.916Z,99986.41
2023-05-12T08:58:42.355Z,99984.50
2023-05-12T09:01:11.862Z,99989.16
2023-05-12T09:03:38.964Z,99991.75
2023-05-12T09:06:06.776Z,99980.03
2023-05-12T09:08:35.000Z,99986.75
2023-05-12T09:11:01.994Z,99983.22
2023-05-12T09:13:37.695Z,99984.69
2023-05-12T09:16:06.967Z,99982.91
2023-05-12T09:18:52.055Z,99984.47
2023-05-12T09:21:19.111Z,99984.53
2023-05-12T09:24:05.857Z,99979.59
2023-05-12T09:26:44.311Z,99984.84
2023-05-12T09:29:15.740Z,99993.78
2023-05-12T09:31:51.883Z,99986.53
2023-05-12T09:34:20.346Z,99993.28
2023-05-12T09:36:56.321Z,99983.22
2023-05-12T09:39:22.749Z,99988.38
2023-05-12T09:41:49.198Z,99987.38
2023-05-12T09:44:16.982Z,99999.50
2023-05-12T09:46:44.692Z,99986.16
2023-05-12T09:49:11.969Z,99977.69
2023-05-12T09:51:40.046Z,99981.19
2023-05-12T09:54:07.798Z,99979.00
2023-05-12T09:56:37.601Z,99982.94
2023-05-12T09:59:05.414Z,99982.84
2023-05-12T10:01:32.151Z,99989.75
2023-05-12T10:03:59.102Z,99983.44
2023-05-12T10:06:33.929Z,99985.09
2023-05-12T10:09:23.964Z,99980.47
2023-05-12T10:11:53.500Z,99977.28
2023-05-12T10:14:22.536Z,99971.53
2023-05-12T10:16:49.742Z,99980.84
2023-05-12T10:19:17.448Z,99972.75
2023-05-12T10:21:47.186Z,99981.56
2023-05-12T10:24:14.662Z,99969.97
2023-05-12T10:26:42.574Z,99979.47
2023-05-12T10:29:09.775Z,99969.63
2023-05-12T10:31:37.504Z,99964.78
2023-05-12T10:34:05.397Z,99958.09
2023-05-12T10:36:31.870Z,99964.59
2023-05-12T10:39:05.697Z,99966.50
2023-05-12T10:41:33.543Z,99963.25
2023-05-12T10:44:00.427Z,99970.19
2023-05-12T10:46:27.799Z,99966.22
2023-05-12T10:49:03.244Z,99970.50
2023-05-12T10:51:33.121Z,99952.13
2023-05-12T10:54:05.221Z,99964.88
2023-05-12T10:56:43.979Z,99973.31
2023-05-12T10:59:17.253Z,99966.31
2023-05-12T11:02:01.564Z,99970.69
2023-05-12T11:04:41.273Z,99968.09
2023-05-12T11:07:10.093Z,99974.00
2023-05-12T11:09:44.666Z,99966.72
2023-05-12T11:12:14.723Z,99968.28
2023-05-12T11:14:43.869Z,99971.16
2023-05-12T11:17:10.827Z,99962.50
2023-05-12T11:19:38.340Z,99962.69
2023-05-12T11:22:07.363Z,99967.31
2023-05-12T11:24:34.169Z,99961.91
2023-05-12T11:27:00.664Z,99962.50
2023-05-12T11:29:27.287Z,99959.16
2023-05-12T11:31:53.938Z,99968.66
2023-05-12T11:34:22.295Z,99957.16
2023-05-12T11:36:50.655Z,99970.00
2023-05-12T11:39:24.443Z,99973.75
2023-05-12T11:41:54.713Z,99976.09
2023-05-12T11:44:25.927Z,99982.50
2023-05-12T11:47:10.813Z,99965.34
2023-05-12T11:49:51.188Z,99978.91
2023-05-12T11:52:19.691Z,99981.19
2023-05-12T11:54:51.541Z,99983.84
2023-05-12T11:57:28.131Z,99986.75
2023-05-12T12:00:03.489Z,99985.75
2023-05-12T12:02:30.632Z,99982.34
2023-05-12T12:04:57.680Z,99981.38
2023-05-12T12:07:34.775Z,99981.00
2023-05-12T12:10:16.917Z,99980.22
2023-05-12T12:12:44.184Z,99987.66
2023-05-12T12:15:11.465Z,99976.47
2023-05-12T12:17:39.864Z,99983.75
2023-05-12T12:20:07.814Z,99985.53
2023-05-12T12:22:34.639Z,99989.91
2023-05-12T12:25:02.200Z,99997.25
2023-05-12T12:27:28.654Z,100003.63
2023-05-12T12:29:55.152Z,99994.06
2023-05-12T12:32:21.735Z,99999.03
2023-05-12T12:34:49.345Z,100005.88
2023-05-12T12:37:16.195Z,99994.47
2023-05-12T12:39:44.011Z,99997.66
2023-05-12T12:42:10.462Z,100000.19
2023-05-12T12:44:36.905Z,99996.72
2023-05-12T12:47:04.044Z,99995.97
2023-05-12T12:49:30.507Z,100004.28
2023-05-12T12:51:56.922Z,99994.63
2023-05-12T12:54:26.957Z,99985.28
2023-05-12T12:56:53.680Z,99996.34
2023-05-12T12:59:20.122Z,99989.72
2023-05-12T13:01:46.604Z,99991.06
2023-05-12T13:04:13.004Z,99990.56
2023-05-12T13:06:39.905Z,99985.59
2023-05-12T13:09:06.592Z,99991.97
2023-05-12T13:11:33.070Z,99988.28
2023-05-12T13:13:59.751Z,99983.75
2023-05-12T13:16:26.306Z,99986.09
2023-05-12T13:18:52.872Z,99987.91
2023-05-12T13:21:19.317Z,99996.75
2023-05-12T13:23:45.788Z,100001.41
2023-05-12T13:26:12.195Z,99993.34
2023-05-12T13:28:38.763Z,99985.81
2023-05-12T13:31:06.212Z,99996.25
2023-05-12T13:33:33.474Z,99991.66
2023-05-12T13:36:00.008Z,99987.56
2023-05-12T13:38:26.863Z,99988.44
2023-05-12T13:40:53.587Z,99986.19
2023-05-12T13:43:20.142Z,99990.22
2023-05-12T13:45:46.720Z,99987.78
2023-05-12T13:48:13.456Z,99991.03
2023-05-12T13:50:40.493Z,99984.69
2023-05-12T13:53:06.958Z,99975.94
2023-05-12T13:55:39.384Z,99979.88
2023-05-12T13:58:07.142Z,99978.91
2023-05-12T14:00:33.717Z,99969.47
2023-05-12T14:03:00.504Z,99975.19
2023-05-12T14:05:27.344Z,99966.13
2023-05-12T14:07:53.801Z,99971.44
2023-05-12T14:10:20.257Z,99966.34
2023-05-12T14:12:47.978Z,99962.19
2023-05-12T14:15:26.596Z,99976.22
2023-05-12T14:17:59.976Z,99974.94
2023-05-12T14:20:26.490Z,99968.09
2023-05-12T14:22:52.954Z,99968.06
2023-05-12T14:25:19.725Z,99977.91
2023-05-12T14:27:46.256Z,99981.09
2023-05-12T14:30:13.220Z,99978.97
2023-05-12T14:32:39.981Z,99983.28
2023-05-12T14:35:08.234Z,99992.03
2023-05-12T14:37:35.249Z,99991.81
2023-05-12T14:40:02.138Z,99996.06
2023-05-12T14:42:29.453Z,99990.28
2023-05-12T14:44:56.464Z,99987.00
2023-05-12T14:47:23.020Z,99986.44
2023-05-12T14:49:49.669Z,99992.31
2023-05-12T14:52:16.269Z,99990.34
2023-05-12T14:54:42.727Z,99986.34
2023-05-12T14:57:09.178Z,99993.19
2023-05-12T14:59:36.029Z,99994.69
2023-05-12T15:02:02.483Z,99999.03
2023-05-12T15:04:28.911Z,99989.66
2023-05-12T15:06:55.469Z,99980.03
2023-05-12T15:09:22.007Z,99985.34
2023-05-12T15:11:49.405Z,99975.16
2023-05-12T15:14:15.798Z,99977.28
2023-05-12T15:16:42.325Z,99982.47
2023-05-12T15:19:09.057Z,99974.44
2023-05-12T15:21:36.754Z,99979.13
2023-05-12T15:24:03.565Z,99979.00
2023-05-12T15:26:33.706Z,99984.72
2023-05-12T15:29:01.635Z,99979.44
2023-05-12T15:31:29.772Z,99993.50
2023-05-12T15:33:59.452Z,99987.38
2023-05-12T15:36:25.882Z,99983.69
2023-05-12T15:38:52.253Z,99983.00
2023-05-12T15:41:19.005Z,99983.66
2023-05-12T15:43:45.388Z,99989.56
2023-05-12T15:46:11.994Z,99984.75
2023-05-12T15:48:39.453Z,99980.91
2023-05-12T15:51:06.499Z,99981.25
2023-05-12T15:53:32.957Z,99981.97
2023-05-12T15:56:02.937Z,99980.22
2023-05-12T15:58:29.759Z,99976.81
2023-05-12T16:00:56.219Z,99977.41
2023-05-12T16:03:23.655Z,99973.03
2023-05-12T16:05:50.368Z,99986.00
2023-05-12T16:08:16.950Z,99980.97
2023-05-12T16:10:43.377Z,99986.94
2023-05-12T16:13:09.826Z,99979.16
2023-05-12T16:15:36.814Z,99983.16
2023-05-12T16:18:03.573Z,99980.34
2023-05-12T16:20:30.179Z,99977.56
2023-05-12T16:22:56.871Z,99974.84
2023-05-12T16:25:23.455Z,99978.47
2023-05-12T16:27:50.106Z,99983.78
2023-05-12T16:30:19.275Z,99972.47
2023-05-12T16:32:47.371Z,99971.88
2023-05-12T16:35:14.079Z,99971.91
2023-05-12T16:37:40.492Z,99970.47
2023-05-12T16:40:07.718Z,99968.13
2023-05-12T16:42:34.121Z,99969.94
2023-05-12T16:45:00.689Z,99974.78
2023-05-12T16:47:27.350Z,99977.19
2023-05-12T16:49:53.831Z,99976.81
2023-05-12T16:52:20.468Z,99977.56
2023-05-12T16:54:47.662Z,99982.38
2023-05-12T16:57:14.080Z,99994.16
2023-05-12T16:59:40.543Z,100009.84
2023-05-12T17:02:08.321Z,100002.00
2023-05-12T17:04:35.634Z,100003.66
2023-05-12T17:07:02.242Z,100008.56
2023-05-12T17:09:28.666Z,100011.16
2023-05-12T17:11:55.231Z,100020.13
2023-05-12T17:14:21.728Z,100030.22
2023-05-12T17:16:48.149Z,100035.09
2023-05-12T17:19:15.085Z,100048.81
2023-05-12T17:21:42.370Z,100045.22
2023-05-12T17:24:09.194Z,100054.06
2023-05-12T17:26:35.751Z,100052.47
2023-05-12T17:29:02.432Z,100042.81
2023-05-12T17:31:29.059Z,100042.81
2023-05-12T17:33:55.579Z,100047.66
2023-05-12T17:36:22.173Z,100057.72
2023-05-12T17:38:50.516Z,100054.91
2023-05-12T17:41:18.191Z,100051.69
2023-05-12T17:43:44.626Z,100051.25
2023-05-12T17:46:11.162Z,100052.47
2023-05-12T17:48:38.748Z,100046.88
2023-05-12T17:51:06.000Z,100046.44
2023-05-12T17:53:33.040Z,100057.28
2023-05-12T17:55:59.865Z,100061.31
2023-05-12T17:58:26.514Z,100058.91
2023-05-12T18:00:53.117Z,100056.09
2023-05-12T18:03:23.661Z,100056.09
2023-05-12T18:05:51.518Z,100056.09
2023-05-12T18:08:18.293Z,100050.06
2023-05-12T18:10:45.489Z,100054.88
2023-05-12T18:13:12.252Z,100055.69
2023-05-12T18:15:39.826Z,100051.66
2023-05-12T18:18:06.470Z,100050.44
2023-05-12T18:20:32.851Z,100052.06
2023-05-12T18:22:59.381Z,100056.50
2023-05-12T18:25:26.197Z,100054.88
2023-05-12T18:27:52.744Z,100056.47
2023-05-12T18:30:19.347Z,100055.22
2023-05-12T18:32:45.832Z,100061.19
2023-05-12T18:35:12.345Z,100055.13
2023-05-12T18:37:38.900Z,100059.97
2023-05-12T18:40:06.906Z,100056.38
2023-05-12T18:42:34.319Z,100068.41
2023-05-12T18:45:00.852Z,100069.22
2023-05-12T18:47:27.277Z,100076.84
2023-05-12T18:49:53.877Z,100076.78
2023-05-12T18:52:21.272Z,100073.16
2023-05-12T18:54:49.722Z,100087.22
2023-05-12T18:57:16.718Z,100087.16
2023-05-12T18:59:43.541Z,100076.34
2023-05-12T19:02:10.229Z,100084.31
2023-05-12T19:04:37.018Z,100077.88
2023-05-12T19:07:04.276Z,100089.91
2023-05-12T19:09:30.796Z,100090.28
2023-05-12T19:11:57.592Z,100093.06
2023-05-12T19:14:24.046Z,100098.59
2023-05-12T19:16:50.607Z,100099.75
2023-05-12T19:19:17.320Z,100107.28
2023-05-12T19:21:43.865Z,100106.47
2023-05-12T19:24:10.647Z,100111.19
2023-05-12T19:26:37.333Z,100115.50
2023-05-12T19:29:04.582Z,100115.81
2023-05-12T19:31:31.297Z,100107.66
2023-05-12T19:33:57.860Z,100109.53
2023-05-12T19:36:24.369Z,100122.25
2023-05-12T19:38:50.774Z,100112.44
2023-05-12T19:41:17.240Z,100121.09
2023-05-12T19:43:44.317Z,100127.81
2023-05-12T19:46:11.064Z,100122.13
2023-05-12T19:48:37.731Z,100129.28
2023-05-12T19:51:04.237Z,100137.19
2023-05-12T19:53:30.689Z,100142.56
2023-05-12T19:55:57.361Z,100150.88
2023-05-12T19:58:23.791Z,100142.28
2023-05-12T20:00:50.337Z,100140.22
2023-05-12T20:03:17.359Z,100149.72
2023-05-12T20:05:44.740Z,100152.81
2023-05-12T20:08:11.494Z,100154.91
2023-05-12T20:10:37.911Z,100156.38
2023-05-12T20:13:04.906Z,100153.84
2023-05-12T20:15:31.865Z,100161.06
2023-05-12T20:17:58.453Z,100163.97
2023-05-12T20:20:24.994Z,100149.28
2023-05-12T20:22:52.217Z,100153.88
2023-05-12T20:25:19.805Z,100164.09
2023-05-12T20:27:46.744Z,100160.72
2023-05-12T20:30:13.420Z,100164.13
2023-05-12T20:32:40.070Z,100162.00
2023-05-12T20:35:07.029Z,100155.88
2023-05-12T20:37:33.556Z,100162.56
2023-05-12T20:40:00.306Z,100170.03
2023-05-12T20:42:26.847Z,100164.78
2023-05-12T20:44:56.456Z,100158.81
2023-05-12T20:47:23.064Z,100149.03
2023-05-12T20:49:54.810Z,100146.19
2023-05-12T20:52:21.300Z,100156.84
2023-05-12T20:54:47.709Z,100158.69
2023-05-12T20:57:14.168Z,100159.25
2023-05-12T20:59:40.669Z,100159.44
2023-05-12T21:02:07.178Z,100169.66
2023-05-12T21:04:33.730Z,100164.78
2023-05-12T21:07:00.258Z,100169.13
2023-05-12T21:09:26.756Z,100172.66
2023-05-12T21:11:53.189Z,100174.19
2023-05-12T21:14:19.700Z,100176.63
2023-05-12T21:16:46.311Z,100174.72
2023-05-12T21:19:12.838Z,100178.63
2023-05-12T21:21:39.871Z,100178.16
2023-05-12T21:24:06.893Z,100182.50
2023-05-12T21:26:34.119Z,100187.84
2023-05-12T21:29:03.541Z,100186.75
2023-05-12T21:31:30.667Z,100190.13
2023-05-12T21:33:57.083Z,100188.75
2023-05-12T21:36:23.472Z,100195.34
2023-05-12T21:38:49.952Z,100195.53
2023-05-12T21:41:16.582Z,100199.38
2023-05-12T21:43:43.105Z,100200.00
2023-05-12T21:46:09.603Z,100201.34
2023-05-12T21:48:36.553Z,100201.75
2023-05-12T21:51:03.500Z,100200.59
2023-05-12T21:53:30.024Z,100193.56
2023-05-12T21:55:56.971Z,100198.94
2023-05-12T21:58:23.807Z,100198.31
2023-05-12T22:00:53.647Z,100196.25
2023-05-12T22:03:20.486Z,100199.75
2023-05-12T22:05:47.053Z,100203.91
2023-05-12T22:08:13.907Z,100201.00
2023-05-12T22:10:40.564Z,100207.56
2023-05-12T22:13:07.329Z,100208.63
2023-05-12T22:15:34.065Z,100215.72
2023-05-12T22:18:01.593Z,100225.25
2023-05-12T22:20:28.864Z,100212.63
2023-05-12T22:22:55.329Z,100213.50
2023-05-12T22:25:21.953Z,100216.88
2023-05-12T22:27:48.359Z,100216.53
2023-05-12T22:30:14.942Z,100210.03
2023-05-12T22:32:41.367Z,100220.13
2023-05-12T22:35:08.985Z,100225.41
2023-05-12T22:37:35.684Z,100228.31
2023-05-12T22:40:02.381Z,100221.00
2023-05-12T22:42:29.171Z,100231.00
2023-05-12T22:44:57.281Z,100234.25
2023-05-12T22:47:23.930Z,100232.06
2023-05-12T22:49:50.574Z,100245.53
2023-05-12T22:52:17.535Z,100246.22
2023-05-12T22:54:43.913Z,100249.13
2023-05-12T22:57:10.328Z,100247.16
2023-05-12T22:59:36.754Z,100244.97
2023-05-12T23:02:03.197Z,100239.63
2023-05-12T23:04:29.572Z,100237.66
2023-05-12T23:06:56.268Z,100239.38
2023-05-12T23:09:22.671Z,100246.22
2023-05-12T23:11:49.166Z,100245.19
2023-05-12T23:14:16.023Z,100257.94
2023-05-12T23:16:42.848Z,100260.66
2023-05-12T23:19:09.873Z,100252.59
2023-05-12T23:21:36.673Z,100261.44
2023-05-12T23:24:04.109Z,100260.38
2023-05-12T23:26:30.958Z,100251.22
2023-05-12T23:28:57.437Z,100251.56
2023-05-12T23:31:24.634Z,100243.91
2023-05-12T23:33:51.780Z,100247.03
2023-05-12T23:36:19.328Z,100250.63
2023-05-12T23:38:47.254Z,100249.81
2023-05-12T23:41:14.051Z,100249.59
2023-05-12T23:43:40.607Z,100253.31
2023-05-12T23:46:07.151Z,100252.38
2023-05-12T23:48:33.768Z,100255.16
2023-05-12T23:51:00.213Z,100263.03
2023-05-12T23:53:26.938Z,100257.00
2023-05-12T23:55:53.397Z,100260.63
2023-05-12T23:58:19.906Z,100253.41
